Terminal Aerodrome Forecast
Issued by NWS

Home | Current Version | Previous Version | Text Only | Print | Product List | Glossary On
Versions: 1 2 3 4 5 6 7 8 9 10 11 12 13 14 15 16 17 18 19 20 21 22 23 24 25 26 27 28 29
000
FTUS45 KBOU 271726
TAFAPA
TAF
KAPA 271726Z 2718/2818 07009KT P6SM SCT070 BKN130
      TEMPO 2718/2721 05010G15KT BKN070
     FM272100 33013G20KT P6SM SCT090 BKN140
     FM280100 24008KT P6SM FEW140 SCT200
     FM280400 18007KT P6SM FEW200=

USA.gov is the U.S. government's official web portal to all federal, state and local government web resources and services.